Strona główna
METAR-TAF:

METAR-TAF

Lotnisko :

Port lotniczy Bangi

Bangi, Republika Środkowoafrykańska

Szerokość geograficzna: 04-24N, Długość geograficzna: 018-31E, wysokość: 365 m

Aktualna obserwacja pogody

Raport powstał 41 minut temu, godzina 04:00 UTC
Wiatr 2 kt z kierunków zmiennych
Temperatura 24°C
Wilgotność 94%
Ciśnienie 1013 hPa
Widzialność: 8000 m
Mało chmury na wysokości 400 ft

METAR: FEFF 160400Z VRB02KT 8000 FEW004 24/23 Q1013 TEMPO 3000 BR BKN006

czas: 05:41 (04:41 UTC)

Prognoza

Raport powstał 11 godziny i 41 minut temu, godzina 17:00 UTC
Prognoza ważna od 15 godzina 18 UTC do 16 godzina 24 UTC
Wiatr 3 kt z kierunków zmiennych
Widzialność: 8000 m
Przejściowo
od 16 godzina 03 UTC do 16 godzina 05 UTC
Widzialność: 3000 m
Przerywane chmury na wysokości 400 ft
zamglenie
Od 16 godzina 0900 UTC
Wiatr 6 kt od południowy zachód
Widzialność 10 km lub więcej
Rozproszone chmury na wysokości 2300 ft

TAF: FEFF 151700Z 1518/1624 VRB03KT 8000 NSC TEMPO 1603/1605 3000 BR BKN004 FM160900 22006KT 9999 SCT023

Obserwacja i prognoza pogody dla ponad 4000 lotnisk (raport METAR i TAF).

Dostępne stacje oznaczono żółtymi i czerwonymi punktami na mapie.

Najedź kursorem aby zobaczyć nazwę stacji.

Kliknij aby zobaczyć obserwacje i prognozy pogody.

Aby zmienić mapę: kliknij na zielony przycisk z czarnym krzyżykiem, aby powiększyć; na zielony przycisk z myślnikiem, aby pomniejszyć; na zielone strzałki, aby przejść do map sąsiednich.


METAR-TAF: